sensor_id;sensor_type;location;lat;lon;timestamp;P1;durP1;ratioP1;P2;durP2;ratioP2
17422;SDS011;8829;47.932;7.810;2023-02-04T00:01:51;3.43;;;1.53;;
17422;SDS011;8829;47.932;7.810;2023-02-04T00:04:17;1.20;;;1.20;;
17422;SDS011;8829;47.932;7.810;2023-02-04T00:06:44;1.10;;;1.10;;
17422;SDS011;8829;47.932;7.810;2023-02-04T00:09:12;1.53;;;1.40;;
17422;SDS011;8829;47.932;7.810;2023-02-04T00:11:40;2.30;;;1.30;;
17422;SDS011;8829;47.932;7.810;2023-02-04T00:14:07;1.53;;;1.47;;
17422;SDS011;8829;47.932;7.810;2023-02-04T00:16:33;1.10;;;1.10;;
17422;SDS011;8829;47.932;7.810;2023-02-04T00:19:00;1.47;;;1.40;;
17422;SDS011;8829;47.932;7.810;2023-02-04T00:21:27;1.10;;;1.10;;
17422;SDS011;8829;47.932;7.810;2023-02-04T00:23:53;1.70;;;1.37;;
17422;SDS011;8829;47.932;7.810;2023-02-04T00:26:22;1.53;;;1.43;;
17422;SDS011;8829;47.932;7.810;2023-02-04T00:28:48;1.43;;;1.43;;
17422;SDS011;8829;47.932;7.810;2023-02-04T00:31:15;1.40;;;1.30;;
17422;SDS011;8829;47.932;7.810;2023-02-04T00:33:42;2.03;;;1.47;;
17422;SDS011;8829;47.932;7.810;2023-02-04T00:36:08;1.40;;;1.40;;
17422;SDS011;8829;47.932;7.810;2023-02-04T00:38:35;1.47;;;1.37;;
17422;SDS011;8829;47.932;7.810;2023-02-04T00:41:02;1.37;;;1.30;;
17422;SDS011;8829;47.932;7.810;2023-02-04T00:43:31;1.50;;;1.40;;
17422;SDS011;8829;47.932;7.810;2023-02-04T00:45:58;1.33;;;1.30;;
17422;SDS011;8829;47.932;7.810;2023-02-04T00:48:25;1.63;;;1.53;;
17422;SDS011;8829;47.932;7.810;2023-02-04T00:50:51;1.40;;;1.30;;
17422;SDS011;8829;47.932;7.810;2023-02-04T00:53:18;1.40;;;1.40;;
17422;SDS011;8829;47.932;7.810;2023-02-04T00:55:45;1.57;;;1.47;;
17422;SDS011;8829;47.932;7.810;2023-02-04T00:58:11;1.37;;;1.30;;
17422;SDS011;8829;47.932;7.810;2023-02-04T01:00:40;1.50;;;1.40;;
17422;SDS011;8829;47.932;7.810;2023-02-04T01:03:06;1.30;;;1.30;;
17422;SDS011;8829;47.932;7.810;2023-02-04T01:05:33;1.60;;;1.50;;
17422;SDS011;8829;47.932;7.810;2023-02-04T01:08:00;1.20;;;1.20;;
17422;SDS011;8829;47.932;7.810;2023-02-04T01:10:26;1.40;;;1.40;;
17422;SDS011;8829;47.932;7.810;2023-02-04T01:12:53;2.00;;;1.40;;
17422;SDS011;8829;47.932;7.810;2023-02-04T01:15:20;1.63;;;1.30;;
17422;SDS011;8829;47.932;7.810;2023-02-04T01:17:48;1.40;;;1.40;;
17422;SDS011;8829;47.932;7.810;2023-02-04T01:20:15;1.70;;;1.60;;
17422;SDS011;8829;47.932;7.810;2023-02-04T01:22:42;1.60;;;1.50;;
17422;SDS011;8829;47.932;7.810;2023-02-04T01:25:09;1.53;;;1.43;;
17422;SDS011;8829;47.932;7.810;2023-02-04T01:27:35;5.73;;;2.23;;
17422;SDS011;8829;47.932;7.810;2023-02-04T01:30:02;1.37;;;1.37;;
17422;SDS011;8829;47.932;7.810;2023-02-04T01:32:29;1.60;;;1.50;;
17422;SDS011;8829;47.932;7.810;2023-02-04T01:34:57;1.60;;;1.50;;
17422;SDS011;8829;47.932;7.810;2023-02-04T01:37:24;1.60;;;1.50;;
17422;SDS011;8829;47.932;7.810;2023-02-04T01:39:51;1.70;;;1.60;;
17422;SDS011;8829;47.932;7.810;2023-02-04T01:42:17;1.60;;;1.50;;
17422;SDS011;8829;47.932;7.810;2023-02-04T01:44:44;1.80;;;1.70;;
17422;SDS011;8829;47.932;7.810;2023-02-04T01:47:12;2.63;;;1.80;;
17422;SDS011;8829;47.932;7.810;2023-02-04T01:49:39;6.40;;;5.53;;
17422;SDS011;8829;47.932;7.810;2023-02-04T01:52:07;1.80;;;1.70;;
17422;SDS011;8829;47.932;7.810;2023-02-04T01:54:36;1.90;;;1.60;;
17422;SDS011;8829;47.932;7.810;2023-02-04T01:57:04;1.60;;;1.50;;
17422;SDS011;8829;47.932;7.810;2023-02-04T01:59:34;2.43;;;1.60;;
17422;SDS011;8829;47.932;7.810;2023-02-04T02:05:04;2.80;;;2.07;;
17422;SDS011;8829;47.932;7.810;2023-02-04T02:07:33;1.50;;;1.43;;
17422;SDS011;8829;47.932;7.810;2023-02-04T02:10:00;1.50;;;1.50;;
17422;SDS011;8829;47.932;7.810;2023-02-04T02:12:27;1.43;;;1.33;;
17422;SDS011;8829;47.932;7.810;2023-02-04T02:14:53;1.23;;;1.23;;
17422;SDS011;8829;47.932;7.810;2023-02-04T02:17:20;2.23;;;1.40;;
17422;SDS011;8829;47.932;7.810;2023-02-04T02:19:47;1.10;;;1.10;;
17422;SDS011;8829;47.932;7.810;2023-02-04T02:22:15;1.20;;;1.20;;
17422;SDS011;8829;47.932;7.810;2023-02-04T02:24:48;1.37;;;1.10;;
17422;SDS011;8829;47.932;7.810;2023-02-04T02:27:15;2.23;;;1.90;;
17422;SDS011;8829;47.932;7.810;2023-02-04T02:29:42;1.00;;;1.00;;
17422;SDS011;8829;47.932;7.810;2023-02-04T02:32:09;1.80;;;0.80;;
17422;SDS011;8829;47.932;7.810;2023-02-04T02:34:38;1.13;;;1.00;;
17422;SDS011;8829;47.932;7.810;2023-02-04T02:37:07;1.00;;;1.00;;
17422;SDS011;8829;47.932;7.810;2023-02-04T02:39:34;1.40;;;1.33;;
17422;SDS011;8829;47.932;7.810;2023-02-04T02:42:03;3.27;;;1.33;;
17422;SDS011;8829;47.932;7.810;2023-02-04T02:44:31;1.00;;;1.00;;
17422;SDS011;8829;47.932;7.810;2023-02-04T02:46:58;0.80;;;0.80;;
17422;SDS011;8829;47.932;7.810;2023-02-04T02:49:26;0.80;;;0.80;;
17422;SDS011;8829;47.932;7.810;2023-02-04T02:51:55;0.90;;;0.90;;
17422;SDS011;8829;47.932;7.810;2023-02-04T02:54:23;0.90;;;0.90;;
17422;SDS011;8829;47.932;7.810;2023-02-04T02:56:52;0.80;;;0.80;;
17422;SDS011;8829;47.932;7.810;2023-02-04T02:59:20;0.73;;;0.73;;
17422;SDS011;8829;47.932;7.810;2023-02-04T03:01:48;0.80;;;0.80;;
17422;SDS011;8829;47.932;7.810;2023-02-04T03:04:17;0.70;;;0.70;;
17422;SDS011;8829;47.932;7.810;2023-02-04T03:06:45;0.60;;;0.60;;
17422;SDS011;8829;47.932;7.810;2023-02-04T03:09:12;0.73;;;0.73;;
17422;SDS011;8829;47.932;7.810;2023-02-04T03:11:39;0.60;;;0.60;;
17422;SDS011;8829;47.932;7.810;2023-02-04T03:14:06;0.83;;;0.83;;
17422;SDS011;8829;47.932;7.810;2023-02-04T03:16:34;0.70;;;0.70;;
17422;SDS011;8829;47.932;7.810;2023-02-04T03:19:02;1.33;;;1.17;;
17422;SDS011;8829;47.932;7.810;2023-02-04T03:21:31;0.70;;;0.70;;
17422;SDS011;8829;47.932;7.810;2023-02-04T03:23:58;0.80;;;0.80;;
17422;SDS011;8829;47.932;7.810;2023-02-04T03:26:25;0.63;;;0.63;;
17422;SDS011;8829;47.932;7.810;2023-02-04T03:28:52;4.63;;;1.20;;
17422;SDS011;8829;47.932;7.810;2023-02-04T03:31:19;0.80;;;0.80;;
17422;SDS011;8829;47.932;7.810;2023-02-04T03:33:48;1.10;;;1.10;;
17422;SDS011;8829;47.932;7.810;2023-02-04T03:36:14;0.73;;;0.73;;
17422;SDS011;8829;47.932;7.810;2023-02-04T03:38:41;1.20;;;1.20;;
17422;SDS011;8829;47.932;7.810;2023-02-04T03:41:08;1.10;;;1.07;;
17422;SDS011;8829;47.932;7.810;2023-02-04T03:43:34;0.83;;;0.83;;
17422;SDS011;8829;47.932;7.810;2023-02-04T03:46:01;1.10;;;1.10;;
17422;SDS011;8829;47.932;7.810;2023-02-04T03:48:28;1.10;;;1.10;;
17422;SDS011;8829;47.932;7.810;2023-02-04T03:50:56;1.03;;;1.03;;
17422;SDS011;8829;47.932;7.810;2023-02-04T03:53:23;0.90;;;0.90;;
17422;SDS011;8829;47.932;7.810;2023-02-04T03:55:50;1.00;;;1.00;;
17422;SDS011;8829;47.932;7.810;2023-02-04T03:58:16;1.00;;;1.00;;
17422;SDS011;8829;47.932;7.810;2023-02-04T04:00:43;0.90;;;0.90;;
17422;SDS011;8829;47.932;7.810;2023-02-04T04:03:10;1.00;;;1.00;;
17422;SDS011;8829;47.932;7.810;2023-02-04T04:05:36;1.00;;;1.00;;
17422;SDS011;8829;47.932;7.810;2023-02-04T04:08:04;1.30;;;1.20;;
17422;SDS011;8829;47.932;7.810;2023-02-04T04:10:31;0.80;;;0.80;;
17422;SDS011;8829;47.932;7.810;2023-02-04T04:12:58;1.10;;;1.10;;
17422;SDS011;8829;47.932;7.810;2023-02-04T04:15:25;0.93;;;0.93;;
17422;SDS011;8829;47.932;7.810;2023-02-04T04:17:51;0.90;;;0.90;;
17422;SDS011;8829;47.932;7.810;2023-02-04T04:20:18;0.90;;;0.90;;
17422;SDS011;8829;47.932;7.810;2023-02-04T04:22:49;1.03;;;1.03;;
17422;SDS011;8829;47.932;7.810;2023-02-04T04:25:17;4.83;;;1.10;;
17422;SDS011;8829;47.932;7.810;2023-02-04T04:27:44;1.10;;;1.10;;
17422;SDS011;8829;47.932;7.810;2023-02-04T04:30:10;4.47;;;1.33;;
17422;SDS011;8829;47.932;7.810;2023-02-04T04:32:37;1.13;;;1.13;;
17422;SDS011;8829;47.932;7.810;2023-02-04T04:35:04;2.57;;;1.53;;
17422;SDS011;8829;47.932;7.810;2023-02-04T04:37:31;1.30;;;1.20;;
17422;SDS011;8829;47.932;7.810;2023-02-04T04:39:59;1.40;;;1.40;;
17422;SDS011;8829;47.932;7.810;2023-02-04T04:42:28;1.33;;;1.23;;
17422;SDS011;8829;47.932;7.810;2023-02-04T04:44:54;1.43;;;1.33;;
17422;SDS011;8829;47.932;7.810;2023-02-04T04:47:21;2.70;;;1.40;;
17422;SDS011;8829;47.932;7.810;2023-02-04T04:49:48;1.20;;;1.20;;
17422;SDS011;8829;47.932;7.810;2023-02-04T04:52:14;1.33;;;1.33;;
17422;SDS011;8829;47.932;7.810;2023-02-04T04:54:41;1.23;;;1.23;;
17422;SDS011;8829;47.932;7.810;2023-02-04T04:57:08;1.90;;;1.80;;
17422;SDS011;8829;47.932;7.810;2023-02-04T04:59:36;1.83;;;1.73;;
17422;SDS011;8829;47.932;7.810;2023-02-04T05:02:03;1.90;;;1.80;;
17422;SDS011;8829;47.932;7.810;2023-02-04T05:04:29;1.93;;;1.83;;
17422;SDS011;8829;47.932;7.810;2023-02-04T05:06:56;2.13;;;1.57;;
17422;SDS011;8829;47.932;7.810;2023-02-04T05:09:23;2.13;;;1.87;;
17422;SDS011;8829;47.932;7.810;2023-02-04T05:11:50;1.77;;;1.70;;
17422;SDS011;8829;47.932;7.810;2023-02-04T05:14:16;2.03;;;1.93;;
17422;SDS011;8829;47.932;7.810;2023-02-04T05:16:44;1.77;;;1.70;;
17422;SDS011;8829;47.932;7.810;2023-02-04T05:19:11;1.73;;;1.63;;
17422;SDS011;8829;47.932;7.810;2023-02-04T05:21:38;1.80;;;1.70;;
17422;SDS011;8829;47.932;7.810;2023-02-04T05:24:04;1.60;;;1.30;;
17422;SDS011;8829;47.932;7.810;2023-02-04T05:26:31;1.50;;;1.40;;
17422;SDS011;8829;47.932;7.810;2023-02-04T05:28:58;0.90;;;0.90;;
17422;SDS011;8829;47.932;7.810;2023-02-04T05:31:25;1.20;;;1.20;;
17422;SDS011;8829;47.932;7.810;2023-02-04T05:33:53;1.60;;;1.50;;
17422;SDS011;8829;47.932;7.810;2023-02-04T05:36:20;1.13;;;1.13;;
17422;SDS011;8829;47.932;7.810;2023-02-04T05:38:47;1.10;;;1.10;;
17422;SDS011;8829;47.932;7.810;2023-02-04T05:41:14;1.30;;;1.30;;
17422;SDS011;8829;47.932;7.810;2023-02-04T05:43:40;1.30;;;1.30;;
17422;SDS011;8829;47.932;7.810;2023-02-04T05:46:08;2.50;;;2.40;;
17422;SDS011;8829;47.932;7.810;2023-02-04T05:48:34;1.90;;;1.80;;
17422;SDS011;8829;47.932;7.810;2023-02-04T05:51:02;2.17;;;2.07;;
17422;SDS011;8829;47.932;7.810;2023-02-04T05:53:29;1.97;;;1.87;;
17422;SDS011;8829;47.932;7.810;2023-02-04T05:55:56;1.40;;;1.40;;
17422;SDS011;8829;47.932;7.810;2023-02-04T05:58:23;1.77;;;1.67;;
17422;SDS011;8829;47.932;7.810;2023-02-04T06:00:49;1.80;;;1.70;;
17422;SDS011;8829;47.932;7.810;2023-02-04T06:03:16;2.60;;;1.90;;
17422;SDS011;8829;47.932;7.810;2023-02-04T06:05:43;1.70;;;1.60;;
17422;SDS011;8829;47.932;7.810;2023-02-04T06:08:11;6.43;;;2.77;;
17422;SDS011;8829;47.932;7.810;2023-02-04T06:10:39;2.10;;;2.00;;
17422;SDS011;8829;47.932;7.810;2023-02-04T06:13:06;1.60;;;1.50;;
17422;SDS011;8829;47.932;7.810;2023-02-04T06:15:33;2.40;;;2.30;;
17422;SDS011;8829;47.932;7.810;2023-02-04T06:18:00;2.50;;;2.40;;
17422;SDS011;8829;47.932;7.810;2023-02-04T06:20:26;2.63;;;2.17;;
17422;SDS011;8829;47.932;7.810;2023-02-04T06:22:53;3.17;;;2.30;;
17422;SDS011;8829;47.932;7.810;2023-02-04T06:25:21;2.53;;;2.43;;
17422;SDS011;8829;47.932;7.810;2023-02-04T06:27:48;4.07;;;2.60;;
17422;SDS011;8829;47.932;7.810;2023-02-04T06:30:15;3.47;;;3.17;;
17422;SDS011;8829;47.932;7.810;2023-02-04T06:32:43;4.07;;;3.40;;
17422;SDS011;8829;47.932;7.810;2023-02-04T06:35:09;4.03;;;3.43;;
17422;SDS011;8829;47.932;7.810;2023-02-04T06:37:37;3.70;;;3.50;;
17422;SDS011;8829;47.932;7.810;2023-02-04T06:40:04;3.63;;;3.43;;
17422;SDS011;8829;47.932;7.810;2023-02-04T06:42:34;3.27;;;3.07;;
17422;SDS011;8829;47.932;7.810;2023-02-04T06:45:01;3.17;;;2.97;;
17422;SDS011;8829;47.932;7.810;2023-02-04T06:47:27;3.23;;;2.77;;
17422;SDS011;8829;47.932;7.810;2023-02-04T06:49:54;3.70;;;3.43;;
17422;SDS011;8829;47.932;7.810;2023-02-04T06:52:21;3.13;;;2.93;;
17422;SDS011;8829;47.932;7.810;2023-02-04T06:54:48;4.83;;;3.33;;
17422;SDS011;8829;47.932;7.810;2023-02-04T06:57:14;3.00;;;2.80;;
17422;SDS011;8829;47.932;7.810;2023-02-04T06:59:42;3.17;;;2.97;;
17422;SDS011;8829;47.932;7.810;2023-02-04T07:02:11;3.23;;;2.93;;
17422;SDS011;8829;47.932;7.810;2023-02-04T07:04:37;2.30;;;2.20;;
17422;SDS011;8829;47.932;7.810;2023-02-04T07:07:06;2.20;;;2.10;;
17422;SDS011;8829;47.932;7.810;2023-02-04T07:09:32;2.37;;;2.27;;
17422;SDS011;8829;47.932;7.810;2023-02-04T07:11:59;3.60;;;2.50;;
17422;SDS011;8829;47.932;7.810;2023-02-04T07:14:26;2.60;;;2.50;;
17422;SDS011;8829;47.932;7.810;2023-02-04T07:16:54;2.10;;;2.00;;
17422;SDS011;8829;47.932;7.810;2023-02-04T07:19:23;1.73;;;1.47;;
17422;SDS011;8829;47.932;7.810;2023-02-04T07:21:50;1.80;;;1.70;;
17422;SDS011;8829;47.932;7.810;2023-02-04T07:24:18;3.20;;;3.00;;
17422;SDS011;8829;47.932;7.810;2023-02-04T07:26:45;3.00;;;2.80;;
17422;SDS011;8829;47.932;7.810;2023-02-04T07:29:12;2.03;;;1.93;;
17422;SDS011;8829;47.932;7.810;2023-02-04T07:31:39;3.37;;;3.13;;
17422;SDS011;8829;47.932;7.810;2023-02-04T07:34:07;9.23;;;7.33;;
17422;SDS011;8829;47.932;7.810;2023-02-04T07:36:34;5.53;;;5.03;;
17422;SDS011;8829;47.932;7.810;2023-02-04T07:39:01;5.80;;;5.03;;
17422;SDS011;8829;47.932;7.810;2023-02-04T07:41:28;5.53;;;5.03;;
17422;SDS011;8829;47.932;7.810;2023-02-04T07:43:54;5.73;;;5.27;;
17422;SDS011;8829;47.932;7.810;2023-02-04T07:46:21;4.70;;;4.30;;
17422;SDS011;8829;47.932;7.810;2023-02-04T07:48:49;6.03;;;5.53;;
17422;SDS011;8829;47.932;7.810;2023-02-04T07:51:17;5.40;;;4.90;;
17422;SDS011;8829;47.932;7.810;2023-02-04T07:53:44;6.40;;;5.03;;
17422;SDS011;8829;47.932;7.810;2023-02-04T07:56:10;4.83;;;4.43;;
17422;SDS011;8829;47.932;7.810;2023-02-04T07:58:37;4.20;;;3.90;;
17422;SDS011;8829;47.932;7.810;2023-02-04T08:01:04;3.63;;;3.40;;
17422;SDS011;8829;47.932;7.810;2023-02-04T08:03:31;3.73;;;3.53;;
17422;SDS011;8829;47.932;7.810;2023-02-04T08:05:57;4.90;;;4.50;;
17422;SDS011;8829;47.932;7.810;2023-02-04T08:08:26;4.10;;;3.80;;
17422;SDS011;8829;47.932;7.810;2023-02-04T08:10:52;4.07;;;3.77;;
17422;SDS011;8829;47.932;7.810;2023-02-04T08:13:19;4.00;;;3.70;;
17422;SDS011;8829;47.932;7.810;2023-02-04T08:15:45;3.40;;;3.20;;
17422;SDS011;8829;47.932;7.810;2023-02-04T08:18:12;3.33;;;3.13;;
17422;SDS011;8829;47.932;7.810;2023-02-04T08:20:39;2.53;;;2.40;;
17422;SDS011;8829;47.932;7.810;2023-02-04T08:23:05;2.33;;;2.20;;
17422;SDS011;8829;47.932;7.810;2023-02-04T08:25:33;1.30;;;1.20;;
17422;SDS011;8829;47.932;7.810;2023-02-04T08:28:00;2.23;;;2.13;;
17422;SDS011;8829;47.932;7.810;2023-02-04T08:30:27;1.87;;;1.77;;
17422;SDS011;8829;47.932;7.810;2023-02-04T08:32:54;1.20;;;1.20;;
17422;SDS011;8829;47.932;7.810;2023-02-04T08:35:20;1.27;;;1.20;;
17422;SDS011;8829;47.932;7.810;2023-02-04T08:37:47;2.03;;;1.93;;
17422;SDS011;8829;47.932;7.810;2023-02-04T08:40:14;3.53;;;2.20;;
17422;SDS011;8829;47.932;7.810;2023-02-04T08:42:42;3.10;;;2.80;;
17422;SDS011;8829;47.932;7.810;2023-02-04T08:45:08;5.83;;;3.70;;
17422;SDS011;8829;47.932;7.810;2023-02-04T08:47:35;4.33;;;4.00;;
17422;SDS011;8829;47.932;7.810;2023-02-04T08:50:02;7.40;;;6.70;;
17422;SDS011;8829;47.932;7.810;2023-02-04T08:52:29;7.67;;;6.57;;
17422;SDS011;8829;47.932;7.810;2023-02-04T08:54:55;9.07;;;8.37;;
17422;SDS011;8829;47.932;7.810;2023-02-04T08:57:22;10.70;;;9.70;;
17422;SDS011;8829;47.932;7.810;2023-02-04T08:59:50;5.23;;;4.83;;
17422;SDS011;8829;47.932;7.810;2023-02-04T09:02:17;9.47;;;8.53;;
17422;SDS011;8829;47.932;7.810;2023-02-04T09:04:44;3.67;;;3.47;;
17422;SDS011;8829;47.932;7.810;2023-02-04T09:07:10;3.23;;;2.93;;
17422;SDS011;8829;47.932;7.810;2023-02-04T09:09:37;3.13;;;2.83;;
17422;SDS011;8829;47.932;7.810;2023-02-04T09:12:04;2.87;;;2.67;;
17422;SDS011;8829;47.932;7.810;2023-02-04T09:14:30;2.87;;;2.17;;
17422;SDS011;8829;47.932;7.810;2023-02-04T09:16:58;3.40;;;3.03;;
17422;SDS011;8829;47.932;7.810;2023-02-04T09:19:25;2.87;;;2.60;;
17422;SDS011;8829;47.932;7.810;2023-02-04T09:21:52;2.20;;;2.10;;
17422;SDS011;8829;47.932;7.810;2023-02-04T09:24:19;2.07;;;1.97;;
17422;SDS011;8829;47.932;7.810;2023-02-04T09:26:47;3.23;;;2.70;;
17422;SDS011;8829;47.932;7.810;2023-02-04T09:29:14;2.50;;;2.40;;
17422;SDS011;8829;47.932;7.810;2023-02-04T09:31:41;3.90;;;3.60;;
17422;SDS011;8829;47.932;7.810;2023-02-04T09:34:09;4.03;;;3.63;;
17422;SDS011;8829;47.932;7.810;2023-02-04T09:36:36;3.40;;;3.20;;
17422;SDS011;8829;47.932;7.810;2023-02-04T09:39:03;3.23;;;3.00;;
17422;SDS011;8829;47.932;7.810;2023-02-04T09:41:31;2.93;;;2.80;;
17422;SDS011;8829;47.932;7.810;2023-02-04T09:43:58;2.60;;;2.50;;
17422;SDS011;8829;47.932;7.810;2023-02-04T09:46:26;3.13;;;2.50;;
17422;SDS011;8829;47.932;7.810;2023-02-04T09:48:54;2.83;;;2.63;;
17422;SDS011;8829;47.932;7.810;2023-02-04T09:51:25;12.00;;;9.47;;
17422;SDS011;8829;47.932;7.810;2023-02-04T09:53:53;5.80;;;4.97;;
17422;SDS011;8829;47.932;7.810;2023-02-04T09:56:26;4.20;;;3.80;;
17422;SDS011;8829;47.932;7.810;2023-02-04T09:58:53;3.17;;;2.97;;
17422;SDS011;8829;47.932;7.810;2023-02-04T10:01:20;5.23;;;3.40;;
17422;SDS011;8829;47.932;7.810;2023-02-04T10:03:47;3.73;;;3.43;;
17422;SDS011;8829;47.932;7.810;2023-02-04T10:06:16;3.97;;;3.60;;
17422;SDS011;8829;47.932;7.810;2023-02-04T10:08:46;3.93;;;3.63;;
17422;SDS011;8829;47.932;7.810;2023-02-04T10:11:14;4.37;;;4.07;;
17422;SDS011;8829;47.932;7.810;2023-02-04T10:13:43;4.37;;;4.07;;
17422;SDS011;8829;47.932;7.810;2023-02-04T10:16:12;3.90;;;3.60;;
17422;SDS011;8829;47.932;7.810;2023-02-04T10:18:40;5.67;;;4.53;;
17422;SDS011;8829;47.932;7.810;2023-02-04T10:21:11;6.20;;;5.53;;
17422;SDS011;8829;47.932;7.810;2023-02-04T10:23:40;5.67;;;5.17;;
17422;SDS011;8829;47.932;7.810;2023-02-04T10:26:11;4.73;;;4.33;;
17422;SDS011;8829;47.932;7.810;2023-02-04T10:28:39;5.20;;;4.80;;
17422;SDS011;8829;47.932;7.810;2023-02-04T10:31:10;5.50;;;5.00;;
17422;SDS011;8829;47.932;7.810;2023-02-04T10:34:03;5.00;;;4.60;;
17422;SDS011;8829;47.932;7.810;2023-02-04T10:36:41;4.97;;;4.57;;
17422;SDS011;8829;47.932;7.810;2023-02-04T10:39:11;5.07;;;4.67;;
17422;SDS011;8829;47.932;7.810;2023-02-04T10:41:45;6.43;;;5.77;;
17422;SDS011;8829;47.932;7.810;2023-02-04T10:44:14;2.87;;;2.70;;
17422;SDS011;8829;47.932;7.810;2023-02-04T10:46:42;3.63;;;3.27;;
17422;SDS011;8829;47.932;7.810;2023-02-04T10:49:19;4.00;;;1.23;;
17422;SDS011;8829;47.932;7.810;2023-02-04T10:51:48;0.70;;;0.70;;
17422;SDS011;8829;47.932;7.810;2023-02-04T10:54:16;0.70;;;0.70;;
17422;SDS011;8829;47.932;7.810;2023-02-04T10:56:59;0.60;;;0.57;;
17422;SDS011;8829;47.932;7.810;2023-02-04T10:59:29;0.87;;;0.77;;
17422;SDS011;8829;47.932;7.810;2023-02-04T11:01:57;2.80;;;2.60;;
17422;SDS011;8829;47.932;7.810;2023-02-04T11:04:26;1.37;;;1.27;;
17422;SDS011;8829;47.932;7.810;2023-02-04T11:06:53;1.40;;;1.30;;
17422;SDS011;8829;47.932;7.810;2023-02-04T11:09:21;1.87;;;1.37;;
17422;SDS011;8829;47.932;7.810;2023-02-04T11:11:48;1.77;;;1.50;;
17422;SDS011;8829;47.932;7.810;2023-02-04T11:14:20;2.60;;;1.90;;
17422;SDS011;8829;47.932;7.810;2023-02-04T11:16:53;3.40;;;2.30;;
17422;SDS011;8829;47.932;7.810;2023-02-04T11:19:31;2.73;;;2.53;;
17422;SDS011;8829;47.932;7.810;2023-02-04T11:22:20;3.43;;;3.13;;
17422;SDS011;8829;47.932;7.810;2023-02-04T11:24:48;1.80;;;1.70;;
17422;SDS011;8829;47.932;7.810;2023-02-04T11:27:19;1.47;;;1.40;;
17422;SDS011;8829;47.932;7.810;2023-02-04T11:29:50;2.67;;;2.47;;
17422;SDS011;8829;47.932;7.810;2023-02-04T11:32:28;1.80;;;1.67;;
17422;SDS011;8829;47.932;7.810;2023-02-04T11:37:47;2.83;;;2.30;;
17422;SDS011;8829;47.932;7.810;2023-02-04T11:40:27;4.23;;;2.30;;
17422;SDS011;8829;47.932;7.810;2023-02-04T11:43:00;4.63;;;2.93;;
17422;SDS011;8829;47.932;7.810;2023-02-04T11:45:31;2.83;;;2.63;;
17422;SDS011;8829;47.932;7.810;2023-02-04T11:48:00;3.30;;;3.00;;
17422;SDS011;8829;47.932;7.810;2023-02-04T11:50:30;3.50;;;3.20;;
17422;SDS011;8829;47.932;7.810;2023-02-04T11:52:58;2.30;;;2.10;;
17422;SDS011;8829;47.932;7.810;2023-02-04T11:55:27;2.60;;;2.37;;
17422;SDS011;8829;47.932;7.810;2023-02-04T11:57:55;3.43;;;2.87;;
17422;SDS011;8829;47.932;7.810;2023-02-04T12:00:22;2.90;;;2.00;;
17422;SDS011;8829;47.932;7.810;2023-02-04T12:02:53;2.20;;;2.10;;
17422;SDS011;8829;47.932;7.810;2023-02-04T12:05:28;2.60;;;2.20;;
17422;SDS011;8829;47.932;7.810;2023-02-04T12:08:08;7.60;;;5.37;;
17422;SDS011;8829;47.932;7.810;2023-02-04T12:10:50;2.77;;;2.30;;
17422;SDS011;8829;47.932;7.810;2023-02-04T12:13:24;3.40;;;2.80;;
17422;SDS011;8829;47.932;7.810;2023-02-04T12:15:53;2.07;;;1.97;;
17422;SDS011;8829;47.932;7.810;2023-02-04T12:18:24;2.57;;;1.83;;
17422;SDS011;8829;47.932;7.810;2023-02-04T12:20:52;7.07;;;6.37;;
17422;SDS011;8829;47.932;7.810;2023-02-04T12:23:19;2.20;;;2.00;;
17422;SDS011;8829;47.932;7.810;2023-02-04T12:25:46;1.67;;;1.57;;
17422;SDS011;8829;47.932;7.810;2023-02-04T12:28:13;3.37;;;2.27;;
17422;SDS011;8829;47.932;7.810;2023-02-04T12:30:40;2.90;;;2.00;;
17422;SDS011;8829;47.932;7.810;2023-02-04T12:33:07;2.33;;;1.97;;
17422;SDS011;8829;47.932;7.810;2023-02-04T12:35:35;2.37;;;1.90;;
17422;SDS011;8829;47.932;7.810;2023-02-04T12:38:02;2.95;;;1.88;;
17422;SDS011;8829;47.932;7.810;2023-02-04T12:40:29;1.83;;;1.70;;
17422;SDS011;8829;47.932;7.810;2023-02-04T12:42:56;2.57;;;1.40;;
17422;SDS011;8829;47.932;7.810;2023-02-04T12:45:22;6.00;;;2.17;;
17422;SDS011;8829;47.932;7.810;2023-02-04T12:47:49;2.03;;;1.50;;
17422;SDS011;8829;47.932;7.810;2023-02-04T12:50:16;2.20;;;1.70;;
17422;SDS011;8829;47.932;7.810;2023-02-04T12:52:48;1.73;;;1.50;;
17422;SDS011;8829;47.932;7.810;2023-02-04T12:55:16;5.47;;;3.80;;
17422;SDS011;8829;47.932;7.810;2023-02-04T12:57:43;3.10;;;2.80;;
17422;SDS011;8829;47.932;7.810;2023-02-04T13:00:10;2.67;;;1.90;;
17422;SDS011;8829;47.932;7.810;2023-02-04T13:02:38;5.47;;;4.30;;
17422;SDS011;8829;47.932;7.810;2023-02-04T13:05:06;4.20;;;3.23;;
17422;SDS011;8829;47.932;7.810;2023-02-04T13:07:34;3.37;;;2.83;;
17422;SDS011;8829;47.932;7.810;2023-02-04T13:10:02;3.60;;;2.23;;
17422;SDS011;8829;47.932;7.810;2023-02-04T13:12:30;3.10;;;2.80;;
17422;SDS011;8829;47.932;7.810;2023-02-04T13:14:56;3.37;;;2.47;;
17422;SDS011;8829;47.932;7.810;2023-02-04T13:17:23;5.10;;;3.80;;
17422;SDS011;8829;47.932;7.810;2023-02-04T13:19:50;6.73;;;3.03;;
17422;SDS011;8829;47.932;7.810;2023-02-04T13:22:16;9.07;;;5.20;;
17422;SDS011;8829;47.932;7.810;2023-02-04T13:24:43;25.47;;;16.33;;
17422;SDS011;8829;47.932;7.810;2023-02-04T13:27:11;3.33;;;2.67;;
17422;SDS011;8829;47.932;7.810;2023-02-04T13:29:39;4.23;;;2.83;;
17422;SDS011;8829;47.932;7.810;2023-02-04T13:32:05;7.97;;;4.30;;
17422;SDS011;8829;47.932;7.810;2023-02-04T13:34:33;14.17;;;6.50;;
17422;SDS011;8829;47.932;7.810;2023-02-04T13:37:00;5.30;;;4.40;;
17422;SDS011;8829;47.932;7.810;2023-02-04T13:39:26;4.27;;;3.27;;
17422;SDS011;8829;47.932;7.810;2023-02-04T13:41:53;9.37;;;3.50;;
17422;SDS011;8829;47.932;7.810;2023-02-04T13:44:22;4.30;;;2.77;;
17422;SDS011;8829;47.932;7.810;2023-02-04T13:46:49;6.93;;;4.10;;
17422;SDS011;8829;47.932;7.810;2023-02-04T13:49:16;8.80;;;4.67;;
17422;SDS011;8829;47.932;7.810;2023-02-04T13:51:43;11.60;;;5.67;;
17422;SDS011;8829;47.932;7.810;2023-02-04T13:54:09;7.63;;;4.57;;
17422;SDS011;8829;47.932;7.810;2023-02-04T13:56:36;8.47;;;4.30;;
17422;SDS011;8829;47.932;7.810;2023-02-04T13:59:03;5.60;;;3.10;;
17422;SDS011;8829;47.932;7.810;2023-02-04T14:01:31;7.70;;;3.50;;
17422;SDS011;8829;47.932;7.810;2023-02-04T14:03:58;7.33;;;3.03;;
17422;SDS011;8829;47.932;7.810;2023-02-04T14:06:24;8.90;;;4.10;;
17422;SDS011;8829;47.932;7.810;2023-02-04T14:08:57;8.40;;;5.27;;
17422;SDS011;8829;47.932;7.810;2023-02-04T14:11:24;10.23;;;5.37;;
17422;SDS011;8829;47.932;7.810;2023-02-04T14:13:50;8.87;;;4.33;;
17422;SDS011;8829;47.932;7.810;2023-02-04T14:16:17;8.40;;;3.67;;
17422;SDS011;8829;47.932;7.810;2023-02-04T14:18:45;10.33;;;4.23;;
17422;SDS011;8829;47.932;7.810;2023-02-04T14:21:12;10.37;;;4.27;;
17422;SDS011;8829;47.932;7.810;2023-02-04T14:23:38;8.20;;;4.30;;
17422;SDS011;8829;47.932;7.810;2023-02-04T14:26:05;10.40;;;4.97;;
17422;SDS011;8829;47.932;7.810;2023-02-04T14:28:32;7.90;;;4.07;;
17422;SDS011;8829;47.932;7.810;2023-02-04T14:30:58;4.70;;;3.57;;
17422;SDS011;8829;47.932;7.810;2023-02-04T14:33:25;8.20;;;3.77;;
17422;SDS011;8829;47.932;7.810;2023-02-04T14:35:53;9.50;;;4.60;;
17422;SDS011;8829;47.932;7.810;2023-02-04T14:38:20;7.30;;;4.30;;
17422;SDS011;8829;47.932;7.810;2023-02-04T14:40:47;11.07;;;4.63;;
17422;SDS011;8829;47.932;7.810;2023-02-04T14:43:13;10.77;;;4.67;;
17422;SDS011;8829;47.932;7.810;2023-02-04T14:45:40;11.33;;;4.70;;
17422;SDS011;8829;47.932;7.810;2023-02-04T14:48:07;10.90;;;4.60;;
17422;SDS011;8829;47.932;7.810;2023-02-04T14:50:34;11.47;;;4.43;;
17422;SDS011;8829;47.932;7.810;2023-02-04T14:53:02;7.53;;;4.13;;
17422;SDS011;8829;47.932;7.810;2023-02-04T14:55:29;8.67;;;4.10;;
17422;SDS011;8829;47.932;7.810;2023-02-04T14:57:56;10.23;;;4.73;;
17422;SDS011;8829;47.932;7.810;2023-02-04T15:00:22;9.60;;;4.43;;
17422;SDS011;8829;47.932;7.810;2023-02-04T15:02:49;11.10;;;4.87;;
17422;SDS011;8829;47.932;7.810;2023-02-04T15:05:16;9.97;;;4.33;;
17422;SDS011;8829;47.932;7.810;2023-02-04T15:07:43;7.87;;;4.53;;
17422;SDS011;8829;47.932;7.810;2023-02-04T15:10:11;6.60;;;4.47;;